Time;durP1;ratioP1;P1;durP2;ratioP2;P2;SDS_P1;SDS_P2;PMS_P1;PMS_P2;Temp;Humidity;BMP_temperature;BMP_pressure;BME280_temperature;BME280_humidity;BME280_pressure;Samples;Min_cycle;Max_cycle;Signal;HPM_P1;HPM_P2
2023/05/16 00:02:11;;;;;;;;;;;;;;;13.03;85.21;96280.66;5114610;28;19931;-59
2023/05/16 00:04:38;;;;;;;;;;;;;;;12.98;85.13;96273.00;5114512;28;19924;-59
2023/05/16 00:07:05;;;;;;;;;;;;;;;12.93;85.47;96267.16;5114474;28;19936;-59
2023/05/16 00:09:32;;;;;;;;;;;;;;;12.88;85.59;96272.66;5114349;28;19935;-59
2023/05/16 00:11:59;;;;;;;;;;;;;;;12.92;85.23;96275.97;5114393;28;19924;-58
2023/05/16 00:14:27;;;;;;;;;;;;;;;12.96;85.07;96280.13;5114016;28;19949;-59
2023/05/16 00:16:57;;;;;;;;;;;;;;;13.01;84.54;96277.28;5114154;28;19947;-59
2023/05/16 00:19:26;;;;;;;;;;;;;;;13.05;84.32;96281.44;5114196;28;19927;-59
2023/05/16 00:21:53;;;;;;;;;;;;;;;13.04;84.53;96273.63;5114232;28;19971;-59
2023/05/16 00:24:20;;;;;;;;;;;;;;;13.10;84.59;96281.19;5114110;28;19924;-59
2023/05/16 00:26:47;;;;;;;;;;;;;;;13.10;84.45;96276.75;5114096;28;20387;-59
2023/05/16 00:29:14;;;;;;;;;;;;;;;13.06;84.82;96279.66;5113887;28;19969;-59
2023/05/16 00:31:41;;;;;;;;;;;;;;;13.09;84.74;96280.34;5114129;28;19924;-59
2023/05/16 00:34:08;;;;;;;;;;;;;;;13.08;84.61;96273.38;5114232;28;19938;-58
2023/05/16 00:36:36;;;;;;;;;;;;;;;13.10;84.82;96275.94;5114100;28;20014;-59
2023/05/16 00:39:03;;;;;;;;;;;;;;;13.09;84.85;96271.59;5113897;28;19924;-59
2023/05/16 00:41:30;;;;;;;;;;;;;;;13.08;84.91;96264.66;5113939;28;19976;-58
2023/05/16 00:43:57;;;;;;;;;;;;;;;13.05;84.86;96262.19;5114075;28;19946;-59
2023/05/16 00:46:24;;;;;;;;;;;;;;;13.02;85.18;96269.31;5114052;28;20292;-59
2023/05/16 00:48:51;;;;;;;;;;;;;;;13.00;85.03;96273.78;5113952;28;19924;-59
2023/05/16 00:51:18;;;;;;;;;;;;;;;12.97;85.15;96268.69;5113814;28;19923;-59
2023/05/16 00:53:46;;;;;;;;;;;;;;;12.98;85.04;96273.00;5113803;28;19977;-59
2023/05/16 00:56:13;;;;;;;;;;;;;;;12.98;85.32;96272.19;5113767;28;19924;-58
2023/05/16 00:58:40;;;;;;;;;;;;;;;12.93;85.11;96259.28;5113724;28;19924;-59
2023/05/16 01:01:07;;;;;;;;;;;;;;;12.85;85.12;96256.19;5113799;28;20316;-59
2023/05/16 01:03:34;;;;;;;;;;;;;;;12.89;85.29;96260.38;5113716;28;20300;-59
2023/05/16 01:06:05;;;;;;;;;;;;;;;12.88;85.52;96262.16;5113705;28;20359;-59
2023/05/16 01:08:32;;;;;;;;;;;;;;;12.87;85.71;96257.84;5113553;28;19934;-58
2023/05/16 01:11:03;;;;;;;;;;;;;;;12.89;85.57;96255.97;5113548;28;19924;-59
2023/05/16 01:13:34;;;;;;;;;;;;;;;12.84;85.30;96244.88;5113598;28;19977;-59
2023/05/16 01:16:05;;;;;;;;;;;;;;;12.79;85.38;96254.75;5113715;28;19928;-59
2023/05/16 01:18:37;;;;;;;;;;;;;;;12.81;85.60;96266.03;5113548;28;20312;-60
2023/05/16 01:21:09;;;;;;;;;;;;;;;12.84;85.39;96259.75;5113484;28;19924;-59
2023/05/16 01:23:42;;;;;;;;;;;;;;;12.84;85.10;96257.13;5113531;28;19924;-59
2023/05/16 01:26:21;;;;;;;;;;;;;;;12.83;84.94;96251.06;5113585;28;19931;-59
2023/05/16 01:28:48;;;;;;;;;;;;;;;12.82;84.86;96256.38;5116755;28;19993;-58
2023/05/16 01:31:15;;;;;;;;;;;;;;;12.76;84.77;96258.38;5117533;28;19973;-59
2023/05/16 01:33:42;;;;;;;;;;;;;;;12.79;84.70;96252.13;5117316;28;20409;-59
2023/05/16 01:36:14;;;;;;;;;;;;;;;12.79;84.80;96246.03;5117326;28;19947;-59
2023/05/16 01:38:45;;;;;;;;;;;;;;;12.77;84.73;96248.75;5117233;28;20019;-59
2023/05/16 01:41:16;;;;;;;;;;;;;;;12.79;84.51;96240.78;5117421;28;19928;-59
2023/05/16 01:43:46;;;;;;;;;;;;;;;12.74;84.63;96241.84;5117132;28;19923;-58
2023/05/16 01:46:15;;;;;;;;;;;;;;;12.72;84.72;96243.72;5117130;27;19969;-59
2023/05/16 01:48:46;;;;;;;;;;;;;;;12.74;84.74;96248.91;5117430;28;19951;-59
2023/05/16 01:51:13;;;;;;;;;;;;;;;12.72;84.65;96242.88;5117064;27;20006;-59
2023/05/16 01:53:41;;;;;;;;;;;;;;;12.70;84.38;96239.50;5117095;27;19924;-59
2023/05/16 01:56:10;;;;;;;;;;;;;;;12.67;84.51;96239.66;5116923;28;19924;-59
2023/05/16 01:58:37;;;;;;;;;;;;;;;12.57;84.85;96236.63;5116785;28;19930;-59
2023/05/16 02:01:06;;;;;;;;;;;;;;;12.49;85.13;96229.13;5116855;28;20392;-59
2023/05/16 02:03:33;;;;;;;;;;;;;;;12.58;85.63;96225.22;5116919;28;19963;-59
2023/05/16 02:06:00;;;;;;;;;;;;;;;12.53;85.52;96228.09;5116885;28;19924;-58
2023/05/16 02:08:28;;;;;;;;;;;;;;;12.50;85.45;96223.81;5116719;28;20108;-58
2023/05/16 02:10:54;;;;;;;;;;;;;;;12.52;85.60;96221.13;5116666;28;19930;-58
2023/05/16 02:13:22;;;;;;;;;;;;;;;12.50;85.23;96215.94;5116790;28;19924;-59
2023/05/16 02:15:48;;;;;;;;;;;;;;;12.45;85.17;96217.97;5116659;28;20305;-57
2023/05/16 02:18:17;;;;;;;;;;;;;;;12.43;85.14;96218.97;5116627;28;19924;-59
2023/05/16 02:20:44;;;;;;;;;;;;;;;12.44;85.91;96211.03;5116446;28;19924;-58
2023/05/16 02:23:11;;;;;;;;;;;;;;;12.42;86.31;96212.00;5116320;27;20399;-58
2023/05/16 02:25:38;;;;;;;;;;;;;;;12.45;86.58;96217.97;5116424;28;19924;-58
2023/05/16 02:28:05;;;;;;;;;;;;;;;12.42;86.99;96210.25;5116156;28;19924;-59
2023/05/16 02:30:32;;;;;;;;;;;;;;;12.36;87.12;96205.31;5116234;28;19945;-59
2023/05/16 02:32:59;;;;;;;;;;;;;;;12.40;87.26;96213.88;5116255;28;19935;-58
2023/05/16 02:35:28;;;;;;;;;;;;;;;12.38;87.41;96201.69;5116184;28;19924;-59
2023/05/16 02:37:55;;;;;;;;;;;;;;;12.37;87.75;96202.63;5115683;28;19946;-58
2023/05/16 02:40:22;;;;;;;;;;;;;;;12.38;87.81;96209.53;5116065;28;19932;-59
2023/05/16 02:42:49;;;;;;;;;;;;;;;12.36;87.96;96208.78;5116030;28;20282;-58
2023/05/16 02:45:16;;;;;;;;;;;;;;;12.38;87.59;96195.59;5116008;28;19924;-59
2023/05/16 02:47:43;;;;;;;;;;;;;;;12.33;87.94;96194.97;5116037;28;19931;-59
2023/05/16 02:50:10;;;;;;;;;;;;;;;12.34;88.05;96194.06;5115983;28;19924;-59
2023/05/16 02:52:38;;;;;;;;;;;;;;;12.34;88.08;96183.59;5115965;28;19963;-59
2023/05/16 02:55:06;;;;;;;;;;;;;;;12.36;87.74;96181.72;5115732;27;19949;-59
2023/05/16 02:57:33;;;;;;;;;;;;;;;12.38;87.52;96177.25;5115734;28;19975;-59
2023/05/16 03:00:00;;;;;;;;;;;;;;;12.42;87.34;96170.06;5115634;27;19924;-59
2023/05/16 03:02:27;;;;;;;;;;;;;;;12.45;86.65;96173.38;5115950;28;19930;-59
2023/05/16 03:04:54;;;;;;;;;;;;;;;12.46;85.91;96172.44;5115621;28;19930;-59
2023/05/16 03:07:21;;;;;;;;;;;;;;;12.45;85.98;96175.13;5115601;28;20262;-59
2023/05/16 03:09:49;;;;;;;;;;;;;;;12.39;85.81;96171.06;5115579;28;19924;-59
2023/05/16 03:12:16;;;;;;;;;;;;;;;12.36;86.31;96166.81;5115522;28;20316;-58
2023/05/16 03:14:44;;;;;;;;;;;;;;;12.36;86.48;96177.31;5115513;28;19924;-59
2023/05/16 03:17:10;;;;;;;;;;;;;;;12.39;86.16;96178.94;5115527;28;20366;-59
2023/05/16 03:19:38;;;;;;;;;;;;;;;12.46;85.61;96179.47;5115265;28;20436;-59
2023/05/16 03:22:05;;;;;;;;;;;;;;;12.47;86.20;96179.41;5115301;28;19927;-59
2023/05/16 03:24:32;;;;;;;;;;;;;;;12.56;86.43;96182.47;5115310;27;19923;-59
2023/05/16 03:27:02;;;;;;;;;;;;;;;12.58;85.75;96191.94;5115173;28;19923;-59
2023/05/16 03:29:29;;;;;;;;;;;;;;;12.56;85.53;96182.47;5114956;28;20293;-58
2023/05/16 03:31:56;;;;;;;;;;;;;;;12.60;85.64;96190.09;5115064;28;19924;-59
2023/05/16 03:34:23;;;;;;;;;;;;;;;12.66;85.75;96193.31;5114958;28;19923;-58
2023/05/16 03:36:50;;;;;;;;;;;;;;;12.72;85.86;96193.00;5114892;28;19923;-59
2023/05/16 03:39:17;;;;;;;;;;;;;;;12.75;85.49;96187.59;5114835;28;19930;-58
2023/05/16 03:41:45;;;;;;;;;;;;;;;12.80;85.43;96182.13;5114980;28;20376;-59
2023/05/16 03:44:13;;;;;;;;;;;;;;;12.85;85.42;96182.69;5114917;28;19924;-59
2023/05/16 03:46:40;;;;;;;;;;;;;;;12.91;85.55;96185.00;5114773;28;19923;-59
2023/05/16 03:49:07;;;;;;;;;;;;;;;13.01;85.55;96183.59;5114525;28;19932;-59
2023/05/16 03:51:36;;;;;;;;;;;;;;;13.10;85.64;96179.63;5114109;28;20400;-59
2023/05/16 03:54:03;;;;;;;;;;;;;;;13.17;85.51;96176.66;5114631;28;19993;-59
2023/05/16 03:56:30;;;;;;;;;;;;;;;13.24;85.26;96186.75;5114631;28;19923;-58
2023/05/16 03:58:57;;;;;;;;;;;;;;;13.32;85.11;96196.84;5114609;28;19924;-59
2023/05/16 04:01:27;;;;;;;;;;;;;;;13.40;85.21;96199.06;5114507;28;19923;-59
2023/05/16 04:03:54;;;;;;;;;;;;;;;13.48;85.34;96206.50;5114470;28;19923;-59
2023/05/16 04:06:21;;;;;;;;;;;;;;;13.57;85.15;96207.84;5114446;28;19967;-59
2023/05/16 04:08:48;;;;;;;;;;;;;;;13.69;85.23;96211.56;5114458;28;19924;-59
2023/05/16 04:11:15;;;;;;;;;;;;;;;13.77;84.70;96204.06;5114505;28;20391;-59
2023/05/16 04:13:42;;;;;;;;;;;;;;;13.88;84.46;96206.09;5114368;28;19927;-59
2023/05/16 04:16:09;;;;;;;;;;;;;;;13.97;84.31;96199.47;5114284;28;19976;-58
2023/05/16 04:18:38;;;;;;;;;;;;;;;14.07;84.15;96187.50;5114258;28;19924;-59
2023/05/16 04:21:05;;;;;;;;;;;;;;;14.17;83.39;96195.69;5114205;28;20018;-59
2023/05/16 04:23:33;;;;;;;;;;;;;;;14.25;82.82;96197.88;5114152;28;20282;-59
2023/05/16 04:26:00;;;;;;;;;;;;;;;14.35;81.99;96196.41;5114112;28;19939;-59
2023/05/16 04:28:27;;;;;;;;;;;;;;;14.48;81.46;96206.19;5113836;28;19928;-59
2023/05/16 04:30:54;;;;;;;;;;;;;;;14.62;81.00;96208.00;5114201;28;19981;-59
2023/05/16 04:33:22;;;;;;;;;;;;;;;14.70;79.86;96213.66;5114145;28;19931;-59
2023/05/16 04:35:51;;;;;;;;;;;;;;;14.82;80.63;96214.75;5114142;28;19931;-59
2023/05/16 04:38:18;;;;;;;;;;;;;;;15.02;81.34;96208.25;5114117;28;20284;-58
2023/05/16 04:40:46;;;;;;;;;;;;;;;15.24;80.82;96216.63;5114072;28;19930;-58
2023/05/16 04:43:13;;;;;;;;;;;;;;;15.40;80.03;96213.88;5113987;28;19981;-59
2023/05/16 04:45:41;;;;;;;;;;;;;;;15.46;78.68;96202.94;5113955;28;19950;-58
2023/05/16 04:48:09;;;;;;;;;;;;;;;15.58;77.07;96195.19;5113951;28;19937;-59
2023/05/16 04:50:36;;;;;;;;;;;;;;;15.67;76.90;96189.34;5113929;28;19924;-59
2023/05/16 04:53:04;;;;;;;;;;;;;;;15.78;76.19;96192.13;5113976;28;19928;-59
2023/05/16 04:55:31;;;;;;;;;;;;;;;15.90;75.80;96189.66;5113863;28;19923;-59
2023/05/16 04:57:58;;;;;;;;;;;;;;;15.94;75.10;96188.50;5113932;28;20000;-59
2023/05/16 05:00:26;;;;;;;;;;;;;;;15.92;74.89;96183.31;5113765;28;19976;-58
2023/05/16 05:02:53;;;;;;;;;;;;;;;16.00;74.89;96184.63;5117667;28;19946;-59
2023/05/16 05:05:20;;;;;;;;;;;;;;;16.08;75.03;96186.78;5118150;28;19947;-59
2023/05/16 05:07:47;;;;;;;;;;;;;;;16.12;74.75;96189.13;5117934;27;19931;-59
2023/05/16 05:10:15;;;;;;;;;;;;;;;16.12;74.89;96193.53;5117786;28;20351;-59
2023/05/16 05:12:42;;;;;;;;;;;;;;;16.08;75.74;96189.41;5117799;28;19930;-59
2023/05/16 05:15:09;;;;;;;;;;;;;;;16.15;75.86;96206.53;5117804;28;19970;-59
2023/05/16 05:17:37;;;;;;;;;;;;;;;16.26;75.55;96204.00;5117617;28;19982;-59
2023/05/16 05:20:07;;;;;;;;;;;;;;;16.46;74.57;96204.47;5117525;28;19927;-59
2023/05/16 05:22:34;;;;;;;;;;;;;;;16.60;74.85;96213.25;5117573;28;19935;-59
2023/05/16 05:25:01;;;;;;;;;;;;;;;16.78;74.62;96209.38;5117572;28;19946;-58
2023/05/16 05:27:30;;;;;;;;;;;;;;;16.91;72.27;96203.22;5117326;28;19931;-59
2023/05/16 05:29:57;;;;;;;;;;;;;;;17.01;69.33;96206.09;5117591;28;19924;-59
2023/05/16 05:32:24;;;;;;;;;;;;;;;17.16;68.64;96210.31;5117490;28;19924;-59
2023/05/16 05:34:51;;;;;;;;;;;;;;;17.36;68.50;96208.09;5117332;28;19924;-58
2023/05/16 05:37:18;;;;;;;;;;;;;;;17.59;68.62;96200.31;5117357;28;20586;-59
2023/05/16 05:39:45;;;;;;;;;;;;;;;17.77;67.94;96210.50;5117263;28;19930;-59
2023/05/16 05:42:12;;;;;;;;;;;;;;;17.86;67.18;96209.84;5117206;28;19923;-59
2023/05/16 05:44:40;;;;;;;;;;;;;;;17.97;67.08;96209.03;5117202;27;19930;-58
2023/05/16 05:47:07;;;;;;;;;;;;;;;18.03;66.91;96213.06;5117114;28;19931;-59
2023/05/16 05:49:35;;;;;;;;;;;;;;;18.22;66.60;96203.78;5117075;28;20388;-58
2023/05/16 05:52:02;;;;;;;;;;;;;;;18.34;65.96;96204.66;5116960;27;20287;-59
2023/05/16 05:54:30;;;;;;;;;;;;;;;18.46;64.23;96205.53;5117033;28;19923;-59
2023/05/16 05:56:57;;;;;;;;;;;;;;;18.60;63.67;96204.50;5116950;28;19923;-59
2023/05/16 05:59:24;;;;;;;;;;;;;;;18.65;63.76;96200.56;5116961;28;19931;-58
2023/05/16 06:01:52;;;;;;;;;;;;;;;18.68;63.69;96213.56;5116732;28;20026;-58
2023/05/16 06:04:19;;;;;;;;;;;;;;;18.99;64.46;96213.00;5116830;28;19923;-59
2023/05/16 06:06:46;;;;;;;;;;;;;;;19.43;62.47;96207.88;5116715;27;19975;-58
2023/05/16 06:09:13;;;;;;;;;;;;;;;20.02;61.31;96220.91;5116846;28;20270;-59
2023/05/16 06:11:40;;;;;;;;;;;;;;;20.58;59.46;96207.50;5116742;27;19978;-59
2023/05/16 06:14:07;;;;;;;;;;;;;;;21.06;56.67;96210.63;5115913;28;19924;-59
2023/05/16 06:16:34;;;;;;;;;;;;;;;21.49;56.43;96214.03;5116796;28;19934;-59
2023/05/16 06:19:03;;;;;;;;;;;;;;;22.06;55.51;96218.81;5116669;28;20346;-58
2023/05/16 06:21:31;;;;;;;;;;;;;;;22.43;52.97;96214.59;5116535;28;20339;-59
2023/05/16 06:23:57;;;;;;;;;;;;;;;22.63;52.57;96203.97;5116598;28;20357;-59
2023/05/16 06:26:24;;;;;;;;;;;;;;;22.67;52.04;96205.38;5116435;28;20071;-59
2023/05/16 06:28:51;;;;;;;;;;;;;;;22.76;51.12;96206.34;5116103;28;20366;-59
2023/05/16 06:31:19;;;;;;;;;;;;;;;22.81;52.07;96212.09;5116312;28;19999;-59
2023/05/16 06:33:46;;;;;;;;;;;;;;;22.89;51.21;96214.03;5116285;28;20008;-59
2023/05/16 06:36:14;;;;;;;;;;;;;;;22.81;51.49;96211.22;5116234;28;19928;-59
2023/05/16 06:38:41;;;;;;;;;;;;;;;22.85;52.89;96210.81;5116105;28;19923;-59
2023/05/16 06:41:08;;;;;;;;;;;;;;;23.05;52.29;96215.25;5115870;28;19967;-59
2023/05/16 06:43:35;;;;;;;;;;;;;;;23.11;50.66;96222.66;5116103;28;20361;-60
2023/05/16 06:46:02;;;;;;;;;;;;;;;23.20;51.13;96218.28;5116044;28;19931;-59
2023/05/16 06:48:29;;;;;;;;;;;;;;;23.17;49.39;96214.09;5115922;28;19969;-59
2023/05/16 06:50:56;;;;;;;;;;;;;;;22.91;50.32;96211.22;5115939;27;19981;-59
2023/05/16 06:53:25;;;;;;;;;;;;;;;22.72;50.39;96210.28;5115882;28;19924;-58
2023/05/16 06:55:52;;;;;;;;;;;;;;;22.54;51.85;96199.44;5115830;27;19930;-59
2023/05/16 06:58:18;;;;;;;;;;;;;;;22.45;51.21;96185.16;5115752;28;19924;-59
2023/05/16 07:00:45;;;;;;;;;;;;;;;22.20;49.07;96187.44;5115640;28;19930;-59
2023/05/16 07:03:13;;;;;;;;;;;;;;;22.01;47.89;96198.91;5115671;28;20019;-59
2023/05/16 07:05:40;;;;;;;;;;;;;;;21.84;49.66;96194.13;5115543;28;19955;-58
2023/05/16 07:08:09;;;;;;;;;;;;;;;21.98;52.83;96185.88;5115506;28;19930;-59
2023/05/16 07:10:37;;;;;;;;;;;;;;;22.14;50.73;96183.50;5115602;28;19984;-59
2023/05/16 07:13:05;;;;;;;;;;;;;;;22.27;51.49;96177.06;5115731;28;19927;-59
2023/05/16 07:15:31;;;;;;;;;;;;;;;22.31;50.29;96178.47;5115502;28;19930;-59
2023/05/16 07:17:58;;;;;;;;;;;;;;;22.37;47.82;96172.56;5115417;28;19963;-59
2023/05/16 07:20:25;;;;;;;;;;;;;;;22.54;47.96;96181.66;5115155;28;19928;-59
2023/05/16 07:22:52;;;;;;;;;;;;;;;22.62;45.38;96188.97;5115290;28;20365;-59
2023/05/16 07:25:19;;;;;;;;;;;;;;;22.42;46.20;96183.63;5115257;28;20305;-59
2023/05/16 07:27:47;;;;;;;;;;;;;;;22.55;46.81;96182.50;5114906;28;19931;-59
2023/05/16 07:30:15;;;;;;;;;;;;;;;22.68;46.47;96168.91;5115145;28;19924;-59
2023/05/16 07:32:42;;;;;;;;;;;;;;;22.52;46.81;96164.13;5115114;28;19924;-59
2023/05/16 07:35:09;;;;;;;;;;;;;;;22.11;46.36;96162.47;5115158;28;19993;-59
2023/05/16 07:37:36;;;;;;;;;;;;;;;21.72;48.02;96155.28;5115125;28;20376;-59
2023/05/16 07:40:03;;;;;;;;;;;;;;;21.38;49.21;96161.78;5114943;28;19931;-59
2023/05/16 07:42:31;;;;;;;;;;;;;;;21.37;49.65;96157.41;5114810;28;19970;-58
2023/05/16 07:45:00;;;;;;;;;;;;;;;21.36;50.22;96150.44;5114959;28;20022;-59
2023/05/16 07:47:27;;;;;;;;;;;;;;;21.35;50.45;96146.09;5114875;27;19923;-60
2023/05/16 07:49:54;;;;;;;;;;;;;;;21.30;50.31;96151.81;5114771;28;19969;-59
2023/05/16 07:52:21;;;;;;;;;;;;;;;21.27;51.77;96145.91;5114696;28;20384;-59
2023/05/16 07:54:48;;;;;;;;;;;;;;;20.92;51.47;96143.53;5114759;28;19924;-59
2023/05/16 07:57:15;;;;;;;;;;;;;;;20.96;50.32;96149.44;5114737;28;19927;-59
2023/05/16 07:59:42;;;;;;;;;;;;;;;21.01;50.14;96151.72;5114717;28;20284;-59
2023/05/16 08:02:10;;;;;;;;;;;;;;;21.16;51.11;96147.69;5114588;28;19932;-59
2023/05/16 08:04:37;;;;;;;;;;;;;;;21.16;50.64;96146.88;5114474;28;19930;-59
2023/05/16 08:07:05;;;;;;;;;;;;;;;21.30;52.12;96142.97;5114511;28;19980;-59
2023/05/16 08:09:32;;;;;;;;;;;;;;;21.35;51.08;96143.44;5114436;28;20305;-59
2023/05/16 08:12:02;;;;;;;;;;;;;;;21.33;51.16;96148.03;5114407;28;20334;-59
2023/05/16 08:14:29;;;;;;;;;;;;;;;21.32;50.59;96155.19;5114438;28;19924;-59
2023/05/16 08:16:56;;;;;;;;;;;;;;;21.39;50.21;96147.50;5114342;28;19924;-59
2023/05/16 08:19:25;;;;;;;;;;;;;;;21.42;50.40;96144.56;5114324;28;19924;-59
2023/05/16 08:21:52;;;;;;;;;;;;;;;21.45;49.17;96138.13;5114099;28;19977;-59
2023/05/16 08:24:19;;;;;;;;;;;;;;;21.39;49.35;96139.53;5114183;28;20365;-59
2023/05/16 08:26:46;;;;;;;;;;;;;;;21.44;49.81;96144.44;5114074;28;20002;-59
2023/05/16 08:29:13;;;;;;;;;;;;;;;21.48;51.05;96150.31;5114011;28;20311;-59
2023/05/16 08:31:40;;;;;;;;;;;;;;;21.51;49.71;96161.53;5114118;28;19923;-59
2023/05/16 08:34:08;;;;;;;;;;;;;;;21.54;48.81;96144.44;5114136;28;20073;-59
2023/05/16 08:36:36;;;;;;;;;;;;;;;21.56;48.64;96147.81;5113614;28;19928;-59
2023/05/16 08:39:03;;;;;;;;;;;;;;;21.56;47.66;96147.81;5114083;28;20017;-59
2023/05/16 08:41:30;;;;;;;;;;;;;;;21.61;48.55;96148.25;5113881;28;19924;-59
2023/05/16 08:43:57;;;;;;;;;;;;;;;21.74;50.11;96137.34;5113928;28;19966;-59
2023/05/16 08:46:25;;;;;;;;;;;;;;;21.80;50.42;96114.69;5113931;28;19930;-59
2023/05/16 08:48:53;;;;;;;;;;;;;;;21.66;49.46;96116.75;5113910;28;19924;-58
2023/05/16 08:51:21;;;;;;;;;;;;;;;21.49;49.90;96120.91;5113828;28;20023;-59
2023/05/16 08:53:52;;;;;;;;;;;;;;;21.56;51.36;96130.06;5114020;28;19947;-59
2023/05/16 08:56:21;;;;;;;;;;;;;;;21.57;51.67;96133.53;5113883;28;19928;-59
2023/05/16 08:58:48;;;;;;;;;;;;;;;21.76;51.66;96126.59;5113869;28;20279;-59
2023/05/16 09:01:16;;;;;;;;;;;;;;;22.01;49.64;96137.69;5113792;28;19993;-58
2023/05/16 09:03:43;;;;;;;;;;;;;;;22.22;50.10;96127.69;5113738;28;19924;-59
2023/05/16 09:06:10;;;;;;;;;;;;;;;22.44;49.08;96125.72;5113767;28;19927;-59
2023/05/16 09:08:37;;;;;;;;;;;;;;;22.67;49.75;96120.06;5113746;28;20440;-59
2023/05/16 09:11:05;;;;;;;;;;;;;;;22.47;47.16;96100.63;5113728;28;19969;-59
2023/05/16 09:13:32;;;;;;;;;;;;;;;22.35;47.42;96105.25;5113801;28;19924;-59
2023/05/16 09:16:12;;;;;;;;;;;;;;;22.40;47.64;96127.00;5113708;28;19971;-59
2023/05/16 09:18:39;;;;;;;;;;;;;;;22.36;48.03;96130.09;5113762;28;19950;-58
2023/05/16 09:21:06;;;;;;;;;;;;;;;22.41;47.16;96142.00;5113477;28;19923;-59
2023/05/16 09:23:35;;;;;;;;;;;;;;;22.78;47.06;96142.25;5113487;28;19930;-59
2023/05/16 09:26:02;;;;;;;;;;;;;;;23.05;46.71;96159.25;5113628;28;19927;-59
2023/05/16 09:28:31;;;;;;;;;;;;;;;23.25;47.54;96162.69;5113308;28;19923;-59
2023/05/16 09:30:59;;;;;;;;;;;;;;;23.25;nan;96170.69;5113486;28;19977;-59
2023/05/16 09:33:27;;;;;;;;;;;;;;;23.38;51.85;96169.56;5113502;28;19927;-59
2023/05/16 09:35:58;;;;;;;;;;;;;;;23.42;53.21;96169.06;5113541;28;19947;-59
2023/05/16 09:38:25;;;;;;;;;;;;;;;23.47;50.82;96158.81;5113440;28;19946;-59
2023/05/16 09:40:52;;;;;;;;;;;;;;;23.64;50.64;96159.00;5113542;28;19927;-59
2023/05/16 09:43:21;;;;;;;;;;;;;;;23.70;49.18;96154.88;5113409;28;20398;-59
2023/05/16 09:45:51;;;;;;;;;;;;;;;23.54;44.03;96145.69;5113430;28;20297;-59
2023/05/16 09:48:18;;;;;;;;;;;;;;;23.15;42.77;96153.88;5114334;28;19930;-59
2023/05/16 09:50:50;;;;;;;;;;;;;;;22.67;42.72;96143.25;5117159;28;20380;-59
2023/05/16 09:53:17;;;;;;;;;;;;;;;22.30;44.69;96140.31;5117069;28;19924;-59
2023/05/16 09:55:43;;;;;;;;;;;;;;;22.12;43.99;96142.03;5116912;28;19930;-59
2023/05/16 09:58:10;;;;;;;;;;;;;;;22.39;44.90;96132.47;5117116;27;19924;-59
2023/05/16 10:00:38;;;;;;;;;;;;;;;22.55;43.06;96135.38;5116983;28;19924;-59
2023/05/16 10:03:07;;;;;;;;;;;;;;;22.74;44.89;96135.50;5116793;28;20369;-59
2023/05/16 10:05:34;;;;;;;;;;;;;;;22.80;44.88;96127.78;5116780;27;19991;-59
2023/05/16 10:08:02;;;;;;;;;;;;;;;22.85;45.17;96127.34;5116749;28;20006;-59
2023/05/16 10:10:30;;;;;;;;;;;;;;;22.82;44.17;96132.97;5116731;28;19930;-59
2023/05/16 10:13:00;;;;;;;;;;;;;;;22.77;43.59;96128.06;5116684;28;19974;-59
2023/05/16 10:15:27;;;;;;;;;;;;;;;22.73;43.59;96116.00;5116808;28;19966;-59
2023/05/16 10:17:56;;;;;;;;;;;;;;;22.70;45.22;96113.63;5116744;28;19924;-59
2023/05/16 10:20:25;;;;;;;;;;;;;;;22.73;44.94;96105.34;5116644;28;19932;-59
2023/05/16 10:22:55;;;;;;;;;;;;;;;22.60;46.48;96097.66;5116476;28;19930;-59
2023/05/16 10:25:25;;;;;;;;;;;;;;;22.43;46.03;96086.72;5116366;28;19947;-59
2023/05/16 10:27:52;;;;;;;;;;;;;;;22.41;45.76;96094.03;5116213;28;19978;-59
2023/05/16 10:30:20;;;;;;;;;;;;;;;22.61;45.45;96104.69;5116325;28;19970;-59
2023/05/16 10:32:48;;;;;;;;;;;;;;;22.77;45.09;96085.41;5116357;28;19924;-59
2023/05/16 10:35:15;;;;;;;;;;;;;;;23.00;46.06;96085.03;5116178;27;19924;-59
2023/05/16 10:37:44;;;;;;;;;;;;;;;22.80;45.28;96076.28;5116135;28;19924;-59
2023/05/16 10:40:11;;;;;;;;;;;;;;;22.58;45.53;96063.16;5116236;28;19946;-58
2023/05/16 10:42:38;;;;;;;;;;;;;;;22.35;46.69;96067.97;5116016;28;19923;-58
2023/05/16 10:45:18;;;;;;;;;;;;;;;22.30;49.06;96057.75;5115986;28;20436;-59
2023/05/16 10:47:52;;;;;;;;;;;;;;;22.02;47.71;96051.50;5115924;28;19924;-59
2023/05/16 10:50:31;;;;;;;;;;;;;;;21.90;47.44;96049.00;5116001;28;19931;-59
2023/05/16 10:53:11;;;;;;;;;;;;;;;22.01;47.34;96047.16;5115926;28;20369;-59
2023/05/16 10:55:39;;;;;;;;;;;;;;;22.09;47.82;96041.94;5115887;28;19924;-59
2023/05/16 10:58:06;;;;;;;;;;;;;;;22.11;46.73;96044.47;5115798;28;19973;-59
2023/05/16 11:00:33;;;;;;;;;;;;;;;22.07;45.59;96031.44;5115334;28;20358;-58
2023/05/16 11:03:05;;;;;;;;;;;;;;;22.01;46.38;96028.50;5115714;27;20297;-59
2023/05/16 11:05:32;;;;;;;;;;;;;;;22.02;45.92;96017.72;5115904;28;19928;-59
2023/05/16 11:08:07;;;;;;;;;;;;;;;21.98;46.02;96020.81;5115891;27;19924;-59
2023/05/16 11:10:34;;;;;;;;;;;;;;;22.01;46.24;96017.88;5115550;28;19923;-59
2023/05/16 11:13:03;;;;;;;;;;;;;;;21.73;46.11;96018.56;5115546;28;19977;-59
2023/05/16 11:15:33;;;;;;;;;;;;;;;21.71;46.90;96015.22;5115525;28;19931;-59
2023/05/16 11:18:07;;;;;;;;;;;;;;;21.63;46.76;96007.09;5115489;28;19970;-59
2023/05/16 11:20:35;;;;;;;;;;;;;;;21.49;48.05;95989.75;5115384;28;19924;-59
2023/05/16 11:23:22;;;;;;;;;;;;;;;21.50;48.45;95986.94;5115303;28;19935;-59
2023/05/16 11:25:51;;;;;;;;;;;;;;;21.40;49.16;96000.22;5115346;28;19971;-59
2023/05/16 11:28:19;;;;;;;;;;;;;;;21.54;48.56;96004.28;5114901;28;19928;-59
2023/05/16 11:30:46;;;;;;;;;;;;;;;21.68;49.85;95999.53;5115182;28;19928;-59
2023/05/16 11:33:13;;;;;;;;;;;;;;;21.99;49.50;96004.69;5115250;28;19924;-59
2023/05/16 11:35:41;;;;;;;;;;;;;;;22.25;48.74;96027.22;5115162;28;20035;-59
2023/05/16 11:38:12;;;;;;;;;;;;;;;22.51;47.46;96042.56;5115049;28;20304;-59
2023/05/16 11:40:43;;;;;;;;;;;;;;;22.61;45.39;96043.41;5114951;28;19924;-59
2023/05/16 11:43:11;;;;;;;;;;;;;;;22.56;46.35;96043.81;5114882;28;20284;-59
2023/05/16 11:45:38;;;;;;;;;;;;;;;22.51;47.78;96027.41;5114909;28;20444;-59
2023/05/16 11:48:07;;;;;;;;;;;;;;;22.59;48.77;96034.69;5114930;28;19927;-59
2023/05/16 11:50:35;;;;;;;;;;;;;;;22.63;46.53;96036.06;5114819;28;19930;-59
2023/05/16 11:53:02;;;;;;;;;;;;;;;22.72;46.59;96024.53;5114774;28;20365;-59
2023/05/16 11:55:30;;;;;;;;;;;;;;;22.80;46.90;96006.97;5114698;28;19977;-59
2023/05/16 11:57:59;;;;;;;;;;;;;;;22.91;47.18;95997.94;5114613;28;19924;-59
2023/05/16 12:00:27;;;;;;;;;;;;;;;22.96;47.73;96003.66;5114578;28;20027;-59
2023/05/16 12:02:55;;;;;;;;;;;;;;;23.09;47.28;96000.66;5114010;28;19924;-59
2023/05/16 12:05:27;;;;;;;;;;;;;;;23.23;48.42;95996.59;5114453;28;20395;-59
2023/05/16 12:07:54;;;;;;;;;;;;;;;23.24;46.11;95990.31;5114457;28;19924;-59
2023/05/16 12:10:21;;;;;;;;;;;;;;;23.25;46.30;95993.78;5114043;28;20003;-59
2023/05/16 12:12:50;;;;;;;;;;;;;;;23.32;46.28;95992.19;5114090;28;20280;-59
2023/05/16 12:15:19;;;;;;;;;;;;;;;23.21;45.06;95996.75;5114357;28;20015;-59
2023/05/16 12:17:47;;;;;;;;;;;;;;;23.32;47.39;96013.53;5114235;28;19923;-59
2023/05/16 12:20:15;;;;;;;;;;;;;;;23.36;45.38;96009.59;5114163;28;19924;-59
2023/05/16 12:22:42;;;;;;;;;;;;;;;23.56;46.09;96002.28;5114189;28;19970;-59
2023/05/16 12:25:22;;;;;;;;;;;;;;;23.62;43.94;96008.84;5114326;28;19924;-59
2023/05/16 12:27:49;;;;;;;;;;;;;;;23.47;45.12;96005.88;5113977;28;20292;-59
2023/05/16 12:30:19;;;;;;;;;;;;;;;23.39;45.19;95995.13;5113508;28;20479;-59
2023/05/16 12:32:46;;;;;;;;;;;;;;;23.41;46.11;96001.13;5114166;28;19930;-59
2023/05/16 12:35:13;;;;;;;;;;;;;;;23.40;45.23;96013.66;5114158;28;19924;-60
2023/05/16 12:37:39;;;;;;;;;;;;;;;23.21;44.92;96009.28;5114120;28;19977;-59
2023/05/16 12:40:10;;;;;;;;;;;;;;;23.23;45.91;96007.28;5114072;28;19924;-59
2023/05/16 12:42:36;;;;;;;;;;;;;;;23.24;45.86;96003.63;5113863;28;19928;-59
2023/05/16 12:45:04;;;;;;;;;;;;;;;23.30;45.90;96012.84;5114006;28;20436;-59
2023/05/16 12:47:37;;;;;;;;;;;;;;;23.15;46.43;96020.53;5113917;28;19978;-59
2023/05/16 12:50:08;;;;;;;;;;;;;;;23.06;46.74;96031.09;5113890;28;19928;-59
2023/05/16 12:52:36;;;;;;;;;;;;;;;23.00;46.42;96033.53;5113837;28;20014;-59